DTTZ/TOE METAR and TAF weather

Enter ICAO airport designator
Station Type Date Time Source
DTTZ METAR 2019/02/23 03:00 UTC NOAA

DTTZ 230300Z 30005KT CAVOK 08/01 Q1022 NOSIG


Station Type Date Time Source
DTTZ Decoded METAR 2019/02/23 03:00 UTC NOAA

Tozeur, Tunisia (DTTZ) 33-55N 008-06E 93M
Feb 22, 2019 - 10:00 PM EST / 2019.02.23 0300 UTC
Wind: from the WNW (300 degrees) at 6 MPH (5 KT):0
Visibility: greater than 7 mile(s):0
Temperature: 46 F (8 C)
Dew Point: 33 F (1 C)
Relative Humidity: 61%
Pressure (altimeter): 30.18 in. Hg (1022 hPa)
ob: DTTZ 230300Z 30005KT CAVOK 08/01 Q1022 NOSIG
cycle: 3

Station Type Date Time Source
DTTZ TAF 2019/02/22 18:09 UTC NOAA

TAF DTTZ 221700Z 2218/2318 25010KT CAVOK
BECMG 2222/2224 31005KT
BECMG 2312/2314 35015KT


Example: see airport list